HDAM/JIB METAR and TAF weather

Enter ICAO airport designator
Station Type Date Time Source
HDAM METAR 2019/08/21 15:00 UTC NOAA

HDAM 211500Z 12006KT 9999 FEW023 34/24 Q1003


Station Type Date Time Source
HDAM Decoded METAR 2019/08/21 15:00 UTC NOAA

Station name not available
Aug 21, 2019 - 11:00 AM EDT / 2019.08.21 1500 UTC
Wind: from the ESE (120 degrees) at 7 MPH (6 KT):0
Visibility: greater than 7 mile(s):0
Sky conditions: mostly clear
Temperature: 93 F (34 C)
Heat index: 104.5 F (40.3 C):1
Dew Point: 75 F (24 C)
Relative Humidity: 56%
Pressure (altimeter): 29.62 in. Hg (1003 hPa)
ob: HDAM 211500Z 12006KT 9999 FEW023 34/24 Q1003
cycle: 15

Station Type Date Time Source
HDAM TAF 2019/08/21 18:06 UTC NOAA

TAF TAF HDAM 211700Z 2118/2218 VRB05KT 9999 SKC
BECMG 2200/2206 00000KT FEW133
BECMG 2206/2212 08010KT CAVOK

Example: see airport list